Aviation Digital Data Service (ADDS)

Output produced by METARs form (0330 UTC 25 June 2017)
found at http://www.aviationweather.gov/adds/metars/
 
KBOS 242323Z 2500/2606 27013G20KT P6SM FEW250 
     FM250200 27009KT P6SM FEW250 
     FM250500 27006KT P6SM FEW250 
     FM251800 20012G19KT P6SM SCT060 
     FM252100 20011G18KT P6SM BKN060 
     FM260200 25007KT P6SM SCT060